Time;durP1;ratioP1;P1;durP2;ratioP2;P2;SDS_P1;SDS_P2;PMS_P1;PMS_P2;Temp;Humidity;BMP_temperature;BMP_pressure;BME280_temperature;BME280_humidity;BME280_pressure;Samples;Min_cycle;Max_cycle;Signal;HPM_P1;HPM_P2
2021/10/24 00:00:43;;;;;;;8.75;4.60;;;;;;;;;;5033650;28;20029;-42
2021/10/24 00:03:09;;;;;;;11.98;5.82;;;;;;;;;;5033060;28;20479;-43
2021/10/24 00:05:34;;;;;;;7.57;4.47;;;;;;;;;;5030632;28;20025;-43
2021/10/24 00:08:00;;;;;;;17.80;5.07;;;;;;;;;;5034090;28;20033;-39
2021/10/24 00:10:26;;;;;;;4.80;3.15;;;;;;;;;;5032813;28;20022;-39
2021/10/24 00:12:51;;;;;;;13.98;4.72;;;;;;;;;;5032519;28;20040;-42
2021/10/24 00:15:16;;;;;;;5.82;3.00;;;;;;;;;;5033483;28;20095;-41
2021/10/24 00:17:41;;;;;;;5.85;2.42;;;;;;;;;;5037059;28;20026;-45
2021/10/24 00:20:07;;;;;;;15.30;3.70;;;;;;;;;;5037869;28;20148;-41
2021/10/24 00:22:32;;;;;;;7.32;2.85;;;;;;;;;;5043300;28;20025;-40
2021/10/24 00:24:58;;;;;;;4.22;2.72;;;;;;;;;;5041048;28;20636;-43
2021/10/24 00:27:24;;;;;;;6.55;3.45;;;;;;;;;;5037961;28;20492;-41
2021/10/24 00:29:50;;;;;;;6.40;4.40;;;;;;;;;;5042680;28;20032;-40
2021/10/24 00:32:15;;;;;;;4.78;3.55;;;;;;;;;;5042219;28;20400;-40
2021/10/24 00:34:40;;;;;;;5.18;3.70;;;;;;;;;;5040103;28;20436;-39
2021/10/24 00:37:06;;;;;;;13.75;5.90;;;;;;;;;;5041527;28;20025;-41
2021/10/24 00:39:31;;;;;;;5.50;3.50;;;;;;;;;;5038164;28;20473;-39
2021/10/24 00:41:57;;;;;;;4.03;3.63;;;;;;;;;;5039316;28;20081;-40
2021/10/24 00:44:24;;;;;;;4.28;3.63;;;;;;;;;;5036486;28;20029;-40
2021/10/24 00:46:50;;;;;;;7.40;4.05;;;;;;;;;;5034934;28;20029;-39
2021/10/24 00:49:15;;;;;;;6.15;2.67;;;;;;;;;;5041260;28;20093;-40
2021/10/24 00:51:40;;;;;;;9.10;3.63;;;;;;;;;;5041557;28;20116;-41
2021/10/24 00:54:07;;;;;;;7.78;3.97;;;;;;;;;;5042145;28;20056;-41
2021/10/24 00:56:33;;;;;;;7.35;3.35;;;;;;;;;;5037577;28;20067;-38
2021/10/24 00:59:00;;;;;;;8.07;4.95;;;;;;;;;;5041169;28;20135;-40
2021/10/24 01:01:25;;;;;;;4.63;2.47;;;;;;;;;;5036971;28;20074;-44
2021/10/24 01:03:50;;;;;;;3.67;1.73;;;;;;;;;;5036195;28;20025;-41
2021/10/24 01:06:16;;;;;;;6.55;2.40;;;;;;;;;;5042461;28;20376;-41
2021/10/24 01:08:41;;;;;;;6.10;2.60;;;;;;;;;;5038074;28;20025;-45
2021/10/24 01:11:06;;;;;;;5.13;2.35;;;;;;;;;;5037180;28;20013;-42
2021/10/24 01:13:32;;;;;;;2.60;1.80;;;;;;;;;;5037552;28;20017;-43
2021/10/24 01:16:14;;;;;;;6.55;2.03;;;;;;;;;;5038466;28;20594;-42
2021/10/24 01:18:40;;;;;;;7.15;2.85;;;;;;;;;;5039133;28;20040;-40
2021/10/24 01:21:05;;;;;;;6.18;1.90;;;;;;;;;;5039700;28;20032;-44
2021/10/24 01:23:31;;;;;;;11.32;2.80;;;;;;;;;;5037990;28;20048;-41
2021/10/24 01:25:57;;;;;;;4.30;2.13;;;;;;;;;;5035919;28;20084;-43
2021/10/24 01:28:22;;;;;;;7.47;2.80;;;;;;;;;;5040989;28;20029;-41
2021/10/24 01:30:48;;;;;;;16.77;3.30;;;;;;;;;;5042243;28;20029;-43
2021/10/24 01:33:13;;;;;;;3.33;2.72;;;;;;;;;;5040186;28;20021;-42
2021/10/24 01:35:52;;;;;;;4.90;2.47;;;;;;;;;;5036164;28;20515;-41
2021/10/24 01:38:17;;;;;;;7.32;3.20;;;;;;;;;;5037204;28;20017;-42
2021/10/24 01:40:43;;;;;;;4.03;2.50;;;;;;;;;;5039190;28;20035;-45
2021/10/24 01:43:08;;;;;;;5.18;2.78;;;;;;;;;;5039168;28;20053;-44
2021/10/24 01:45:33;;;;;;;2.17;1.40;;;;;;;;;;5035157;28;20134;-43
2021/10/24 01:47:59;;;;;;;3.42;2.10;;;;;;;;;;5036257;28;20518;-44
2021/10/24 01:50:24;;;;;;;6.93;2.45;;;;;;;;;;5034995;28;20019;-46
2021/10/24 01:52:50;;;;;;;4.75;1.65;;;;;;;;;;5039311;28;20021;-41
2021/10/24 01:55:16;;;;;;;2.50;1.20;;;;;;;;;;5038057;28;20052;-44
2021/10/24 01:57:42;;;;;;;6.50;1.92;;;;;;;;;;5036134;28;20021;-45
2021/10/24 02:00:08;;;;;;;6.07;2.22;;;;;;;;;;5035065;28;20108;-43
2021/10/24 02:02:33;;;;;;;3.28;1.40;;;;;;;;;;5039133;28;20104;-44
2021/10/24 02:04:59;;;;;;;6.90;2.50;;;;;;;;;;5037338;28;20186;-45
2021/10/24 02:07:24;;;;;;;2.88;1.90;;;;;;;;;;5036854;28;20163;-41
2021/10/24 02:09:50;;;;;;;4.10;2.42;;;;;;;;;;5036923;28;20051;-42
2021/10/24 02:12:15;;;;;;;2.90;1.52;;;;;;;;;;5035534;28;20669;-41
2021/10/24 02:14:40;;;;;;;2.92;1.05;;;;;;;;;;5036050;28;20076;-42
2021/10/24 02:17:05;;;;;;;6.20;2.75;;;;;;;;;;5036809;28;20025;-42
2021/10/24 02:19:31;;;;;;;6.30;2.13;;;;;;;;;;5035826;28;20484;-43
2021/10/24 02:21:56;;;;;;;12.27;2.10;;;;;;;;;;5035601;28;20571;-42
2021/10/24 02:24:21;;;;;;;9.10;2.38;;;;;;;;;;5036181;28;20021;-42
2021/10/24 02:26:47;;;;;;;3.20;1.67;;;;;;;;;;5037109;28;20385;-41
2021/10/24 02:29:12;;;;;;;4.25;2.03;;;;;;;;;;5035132;28;20013;-47
2021/10/24 02:31:37;;;;;;;5.82;2.25;;;;;;;;;;5038358;28;20492;-41
2021/10/24 02:34:03;;;;;;;3.75;1.17;;;;;;;;;;5038228;28;20021;-41
2021/10/24 02:36:28;;;;;;;8.18;2.25;;;;;;;;;;5037240;28;20025;-41
2021/10/24 02:38:53;;;;;;;5.10;2.33;;;;;;;;;;5033814;28;20060;-41
2021/10/24 02:41:19;;;;;;;5.07;1.58;;;;;;;;;;5041307;28;20020;-41
2021/10/24 02:43:44;;;;;;;3.28;1.58;;;;;;;;;;5037332;28;20100;-40
2021/10/24 02:46:09;;;;;;;2.08;1.52;;;;;;;;;;5037033;28;20512;-41
2021/10/24 02:48:35;;;;;;;3.15;1.67;;;;;;;;;;5037333;28;20656;-43
2021/10/24 02:51:00;;;;;;;3.05;1.27;;;;;;;;;;5035283;28;20544;-40
2021/10/24 02:53:25;;;;;;;4.97;1.77;;;;;;;;;;5036525;28;20024;-41
2021/10/24 02:55:51;;;;;;;2.00;1.40;;;;;;;;;;5036149;28;20025;-41
2021/10/24 02:58:16;;;;;;;3.53;1.95;;;;;;;;;;5038047;28;20119;-42
2021/10/24 03:00:41;;;;;;;2.67;1.23;;;;;;;;;;5036166;28;20023;-40
2021/10/24 03:03:07;;;;;;;3.75;2.17;;;;;;;;;;5034856;28;20017;-41
2021/10/24 03:05:32;;;;;;;3.78;2.58;;;;;;;;;;5032738;28;20037;-41
2021/10/24 03:07:57;;;;;;;4.82;2.30;;;;;;;;;;5037654;28;20057;-41
2021/10/24 03:10:22;;;;;;;2.72;1.25;;;;;;;;;;5035419;28;20045;-41
2021/10/24 03:12:48;;;;;;;3.05;1.38;;;;;;;;;;5034571;28;20520;-42
2021/10/24 03:15:13;;;;;;;3.78;1.90;;;;;;;;;;5036642;28;20025;-41
2021/10/24 03:17:38;;;;;;;6.63;2.03;;;;;;;;;;5032596;28;20306;-42
2021/10/24 03:20:04;;;;;;;4.95;2.35;;;;;;;;;;5036367;28;20671;-41
2021/10/24 03:22:30;;;;;;;7.00;2.17;;;;;;;;;;5040051;28;20022;-40
2021/10/24 03:24:55;;;;;;;3.85;1.80;;;;;;;;;;5036343;28;20035;-41
2021/10/24 03:27:21;;;;;;;4.40;2.13;;;;;;;;;;5034663;28;20029;-42
2021/10/24 03:29:46;;;;;;;9.82;2.08;;;;;;;;;;5035982;28;20022;-43
2021/10/24 03:32:11;;;;;;;3.28;1.75;;;;;;;;;;5036170;28;20022;-40
2021/10/24 03:34:37;;;;;;;5.85;2.22;;;;;;;;;;5038526;28;20661;-42
2021/10/24 03:37:02;;;;;;;5.93;1.75;;;;;;;;;;5034472;28;20526;-40
2021/10/24 03:39:27;;;;;;;3.05;2.13;;;;;;;;;;5036300;28;20022;-41
2021/10/24 03:41:53;;;;;;;4.60;2.03;;;;;;;;;;5037952;28;20028;-42
2021/10/24 03:44:18;;;;;;;6.70;1.67;;;;;;;;;;5035718;28;20037;-42
2021/10/24 03:46:43;;;;;;;3.08;1.80;;;;;;;;;;5035825;28;20691;-42
2021/10/24 03:49:09;;;;;;;2.55;1.77;;;;;;;;;;5034336;28;20022;-41
2021/10/24 03:51:34;;;;;;;5.63;2.42;;;;;;;;;;5036893;28;20434;-42
2021/10/24 03:53:59;;;;;;;1.67;0.95;;;;;;;;;;5036049;28;20082;-42
2021/10/24 03:56:24;;;;;;;2.28;1.35;;;;;;;;;;5038633;28;20017;-41
2021/10/24 03:58:52;;;;;;;8.23;2.60;;;;;;;;;;5038886;28;20039;-41
2021/10/24 04:01:17;;;;;;;5.13;1.85;;;;;;;;;;5038130;28;20033;-43
2021/10/24 04:03:42;;;;;;;3.65;2.58;;;;;;;;;;5040887;28;20032;-47
2021/10/24 04:06:08;;;;;;;9.30;2.85;;;;;;;;;;5041351;28;20593;-46
2021/10/24 04:08:33;;;;;;;4.68;1.95;;;;;;;;;;5036601;28;20017;-47
2021/10/24 04:10:58;;;;;;;13.43;3.78;;;;;;;;;;5035423;28;20029;-41
2021/10/24 04:13:24;;;;;;;6.43;3.25;;;;;;;;;;5036101;28;20444;-41
2021/10/24 04:15:49;;;;;;;12.77;1.60;;;;;;;;;;5039748;28;20020;-41
2021/10/24 04:18:15;;;;;;;9.60;2.85;;;;;;;;;;5037628;28;20475;-41
2021/10/24 04:20:40;;;;;;;5.28;2.30;;;;;;;;;;5038067;28;20018;-42
2021/10/24 04:23:06;;;;;;;4.50;2.20;;;;;;;;;;5038441;28;20137;-42
2021/10/24 04:25:31;;;;;;;8.73;2.13;;;;;;;;;;5036097;28;20032;-44
2021/10/24 04:27:57;;;;;;;3.78;2.33;;;;;;;;;;5038545;28;20032;-41
2021/10/24 04:30:22;;;;;;;6.57;3.13;;;;;;;;;;5037793;28;20106;-42
2021/10/24 04:32:48;;;;;;;5.38;2.80;;;;;;;;;;5040391;28;20021;-44
2021/10/24 04:35:14;;;;;;;7.75;2.47;;;;;;;;;;5037957;28;20022;-43
2021/10/24 04:37:39;;;;;;;7.38;2.15;;;;;;;;;;5039109;28;20021;-44
2021/10/24 04:40:06;;;;;;;3.08;2.17;;;;;;;;;;5037849;28;20108;-42
2021/10/24 04:42:31;;;;;;;2.83;1.45;;;;;;;;;;5036912;28;20029;-43
2021/10/24 04:44:56;;;;;;;3.67;1.33;;;;;;;;;;5036227;28;20056;-46
2021/10/24 04:47:22;;;;;;;10.05;2.05;;;;;;;;;;5038238;28;20396;-40
2021/10/24 04:49:49;;;;;;;8.95;3.20;;;;;;;;;;5038126;28;20029;-43
2021/10/24 04:52:14;;;;;;;6.68;2.17;;;;;;;;;;5038293;28;20021;-41
2021/10/24 04:54:40;;;;;;;14.77;4.03;;;;;;;;;;5037747;28;20033;-41
2021/10/24 04:57:05;;;;;;;4.53;2.25;;;;;;;;;;5037906;28;20128;-42
2021/10/24 04:59:30;;;;;;;10.90;3.55;;;;;;;;;;5036581;28;20100;-41
2021/10/24 05:01:56;;;;;;;6.00;2.25;;;;;;;;;;5037217;28;20504;-42
2021/10/24 05:04:21;;;;;;;6.95;2.55;;;;;;;;;;5035954;28;20040;-44
2021/10/24 05:06:47;;;;;;;5.93;2.28;;;;;;;;;;5036520;28;20021;-41
2021/10/24 05:09:12;;;;;;;13.55;3.45;;;;;;;;;;5037430;28;20025;-41
2021/10/24 05:11:37;;;;;;;10.10;3.53;;;;;;;;;;5039722;28;20108;-42
2021/10/24 05:14:03;;;;;;;8.32;3.22;;;;;;;;;;5038892;28;20633;-47
2021/10/24 05:16:29;;;;;;;5.68;2.55;;;;;;;;;;5035104;28;20060;-41
2021/10/24 05:18:54;;;;;;;7.57;2.67;;;;;;;;;;5035279;28;20540;-42
2021/10/24 05:21:19;;;;;;;5.05;1.90;;;;;;;;;;5037010;28;20051;-41
2021/10/24 05:23:45;;;;;;;7.50;3.00;;;;;;;;;;5045453;28;20392;-49
2021/10/24 05:26:10;;;;;;;4.68;2.35;;;;;;;;;;5036658;28;20116;-44
2021/10/24 05:28:35;;;;;;;5.43;2.67;;;;;;;;;;5034632;28;20571;-41
2021/10/24 05:31:01;;;;;;;11.65;4.32;;;;;;;;;;5035696;28;20037;-44
2021/10/24 05:33:26;;;;;;;4.25;1.48;;;;;;;;;;5037832;28;20029;-44
2021/10/24 05:35:53;;;;;;;8.50;1.67;;;;;;;;;;5037326;28;20517;-43
2021/10/24 05:38:19;;;;;;;8.57;2.53;;;;;;;;;;5037222;28;20096;-41
2021/10/24 05:40:46;;;;;;;7.10;2.00;;;;;;;;;;5034138;28;20101;-42
2021/10/24 05:43:11;;;;;;;11.38;2.30;;;;;;;;;;5041943;28;20037;-44
2021/10/24 05:45:36;;;;;;;7.47;1.67;;;;;;;;;;5036687;28;20060;-44
2021/10/24 05:48:02;;;;;;;2.83;1.60;;;;;;;;;;5034159;28;20029;-40
2021/10/24 05:50:27;;;;;;;17.80;4.45;;;;;;;;;;5034680;28;20021;-45
2021/10/24 05:52:53;;;;;;;8.93;2.88;;;;;;;;;;5034218;28;20013;-44
2021/10/24 05:55:18;;;;;;;9.02;3.53;;;;;;;;;;5035756;28;20040;-44
2021/10/24 05:57:44;;;;;;;2.20;1.48;;;;;;;;;;5033629;28;20024;-42
2021/10/24 06:00:09;;;;;;;5.25;2.55;;;;;;;;;;5037490;28;20100;-44
2021/10/24 06:02:35;;;;;;;10.55;3.60;;;;;;;;;;5036014;28;20052;-42
2021/10/24 06:05:00;;;;;;;5.20;2.95;;;;;;;;;;5036955;28;20544;-44
2021/10/24 06:07:26;;;;;;;5.32;1.90;;;;;;;;;;5039791;28;20033;-46
2021/10/24 06:09:55;;;;;;;9.18;3.28;;;;;;;;;;5039990;28;20033;-41
2021/10/24 06:15:01;;;;;;;5.55;3.22;;;;;;;;;;5039250;28;20028;-47
2021/10/24 06:17:27;;;;;;;9.20;3.25;;;;;;;;;;5036515;28;20033;-43
2021/10/24 06:19:52;;;;;;;7.68;2.00;;;;;;;;;;5034862;28;20365;-43
2021/10/24 06:22:18;;;;;;;4.78;3.55;;;;;;;;;;5037631;28;20026;-47
2021/10/24 06:24:43;;;;;;;4.72;2.38;;;;;;;;;;5035325;28;20048;-42
2021/10/24 06:27:08;;;;;;;6.75;3.58;;;;;;;;;;5034643;28;20127;-47
2021/10/24 06:29:34;;;;;;;3.60;2.55;;;;;;;;;;5038454;28;20092;-43
2021/10/24 06:31:59;;;;;;;8.00;2.22;;;;;;;;;;5037116;28;20074;-49
2021/10/24 06:34:25;;;;;;;12.55;2.40;;;;;;;;;;5035158;28;20024;-44
2021/10/24 06:36:51;;;;;;;3.55;1.75;;;;;;;;;;5036456;28;20392;-43
2021/10/24 06:39:16;;;;;;;6.13;3.10;;;;;;;;;;5032496;28;20060;-45
2021/10/24 06:41:42;;;;;;;6.18;3.45;;;;;;;;;;5031918;28;20029;-43
2021/10/24 06:44:09;;;;;;;4.97;2.35;;;;;;;;;;5036671;28;20039;-49
2021/10/24 06:46:35;;;;;;;3.65;1.85;;;;;;;;;;5034758;28;20057;-42
2021/10/24 06:49:00;;;;;;;4.20;2.47;;;;;;;;;;5036320;28;20040;-43
2021/10/24 06:51:25;;;;;;;10.55;2.70;;;;;;;;;;5036544;28;20100;-50
2021/10/24 06:53:51;;;;;;;5.13;3.13;;;;;;;;;;5032505;28;20476;-42
2021/10/24 06:56:16;;;;;;;4.93;2.65;;;;;;;;;;5033113;28;20103;-47
2021/10/24 06:58:41;;;;;;;10.07;2.95;;;;;;;;;;5032274;28;20458;-45
2021/10/24 07:01:07;;;;;;;11.85;3.20;;;;;;;;;;5033743;28;20029;-47
2021/10/24 07:03:32;;;;;;;8.43;3.15;;;;;;;;;;5038228;28;20040;-43
2021/10/24 07:05:57;;;;;;;7.05;2.65;;;;;;;;;;5029522;28;20084;-45
2021/10/24 07:08:22;;;;;;;9.80;2.47;;;;;;;;;;5032583;28;20108;-45
2021/10/24 07:10:48;;;;;;;11.80;3.67;;;;;;;;;;5031863;28;20057;-42
2021/10/24 07:13:13;;;;;;;7.13;2.90;;;;;;;;;;5034911;28;20033;-43
2021/10/24 07:15:38;;;;;;;39.67;8.18;;;;;;;;;;5031139;28;20025;-42
2021/10/24 07:18:04;;;;;;;11.40;4.15;;;;;;;;;;5033450;28;20099;-42
2021/10/24 07:20:29;;;;;;;7.65;3.30;;;;;;;;;;5032861;28;20078;-41
2021/10/24 07:22:55;;;;;;;3.50;2.85;;;;;;;;;;5034517;28;20017;-42
2021/10/24 07:25:20;;;;;;;4.13;2.33;;;;;;;;;;5034823;28;20032;-43
2021/10/24 07:27:46;;;;;;;3.70;1.95;;;;;;;;;;5036794;28;20045;-43
2021/10/24 07:30:12;;;;;;;6.88;3.35;;;;;;;;;;5036620;28;20548;-43
2021/10/24 07:32:38;;;;;;;2.03;1.50;;;;;;;;;;5036627;28;20014;-45
2021/10/24 07:35:04;;;;;;;4.43;3.20;;;;;;;;;;5037175;28;20792;-44
2021/10/24 07:37:29;;;;;;;4.15;2.22;;;;;;;;;;5039784;28;20033;-42
2021/10/24 07:39:54;;;;;;;7.47;3.30;;;;;;;;;;5039795;28;20041;-42
2021/10/24 07:42:20;;;;;;;9.50;4.07;;;;;;;;;;5036836;28;20029;-41
2021/10/24 07:44:45;;;;;;;4.03;2.85;;;;;;;;;;5034429;28;20055;-43
2021/10/24 07:47:10;;;;;;;10.35;3.83;;;;;;;;;;5036831;28;20025;-42
2021/10/24 07:49:36;;;;;;;7.13;3.10;;;;;;;;;;5036652;28;20079;-43
2021/10/24 07:52:02;;;;;;;4.90;3.10;;;;;;;;;;5036976;28;20121;-45
2021/10/24 07:54:27;;;;;;;4.50;2.33;;;;;;;;;;5035612;28;20655;-45
2021/10/24 07:56:52;;;;;;;4.13;2.05;;;;;;;;;;5032975;28;20533;-45
2021/10/24 07:59:19;;;;;;;11.23;4.07;;;;;;;;;;5035975;28;20115;-41
2021/10/24 08:01:45;;;;;;;7.28;2.85;;;;;;;;;;5037756;28;20080;-43
2021/10/24 08:04:10;;;;;;;6.97;4.13;;;;;;;;;;5035258;28;20111;-45
2021/10/24 08:06:37;;;;;;;12.38;3.60;;;;;;;;;;5036948;28;20579;-42
2021/10/24 08:09:06;;;;;;;6.10;3.40;;;;;;;;;;5035359;28;20025;-44
2021/10/24 08:11:32;;;;;;;19.58;4.97;;;;;;;;;;5044499;28;20018;-45
2021/10/24 08:13:58;;;;;;;20.48;4.90;;;;;;;;;;5048587;28;20098;-42
2021/10/24 08:16:23;;;;;;;10.13;3.13;;;;;;;;;;5045729;28;20498;-42
2021/10/24 08:18:49;;;;;;;8.73;3.10;;;;;;;;;;5038525;28;20076;-42
2021/10/24 08:21:14;;;;;;;5.82;3.47;;;;;;;;;;5038150;28;20021;-42
2021/10/24 08:23:39;;;;;;;5.95;3.17;;;;;;;;;;5039600;28;20392;-42
2021/10/24 08:26:05;;;;;;;3.70;1.83;;;;;;;;;;5038303;28;20025;-41
2021/10/24 08:28:30;;;;;;;22.65;4.28;;;;;;;;;;5036854;28;20064;-43
2021/10/24 08:30:55;;;;;;;3.78;2.97;;;;;;;;;;5037661;28;20029;-41
2021/10/24 08:33:21;;;;;;;6.95;3.33;;;;;;;;;;5033776;28;20211;-44
2021/10/24 08:35:46;;;;;;;8.75;6.47;;;;;;;;;;5035029;28;20029;-41
2021/10/24 08:38:12;;;;;;;11.10;5.90;;;;;;;;;;5040787;28;20049;-41
2021/10/24 08:40:40;;;;;;;25.95;13.77;;;;;;;;;;5036875;28;20571;-43
2021/10/24 08:43:14;;;;;;;13.93;9.70;;;;;;;;;;5034286;28;20021;-52
2021/10/24 08:45:41;;;;;;;6.70;3.35;;;;;;;;;;5039240;28;20107;-48
2021/10/24 08:48:06;;;;;;;14.65;4.97;;;;;;;;;;5036442;28;20071;-51
2021/10/24 08:50:32;;;;;;;9.07;4.07;;;;;;;;;;5032766;28;20055;-50
2021/10/24 08:52:58;;;;;;;5.70;3.55;;;;;;;;;;5036157;28;20095;-50
2021/10/24 08:55:23;;;;;;;6.85;4.70;;;;;;;;;;5035416;28;20098;-51
2021/10/24 08:57:49;;;;;;;22.95;5.07;;;;;;;;;;5037531;28;20471;-52
2021/10/24 09:00:15;;;;;;;5.57;3.03;;;;;;;;;;5034986;28;20306;-50
2021/10/24 09:02:59;;;;;;;21.52;5.75;;;;;;;;;;5034040;28;20029;-54
2021/10/24 09:05:33;;;;;;;15.07;4.35;;;;;;;;;;5034702;28;20048;-53
2021/10/24 09:08:00;;;;;;;8.07;3.67;;;;;;;;;;5037473;28;20261;-53
2021/10/24 09:10:45;;;;;;;4.97;4.25;;;;;;;;;;5035087;28;20028;-52
2021/10/24 09:13:12;;;;;;;3.22;2.92;;;;;;;;;;5034747;28;20021;-52
2021/10/24 09:15:56;;;;;;;6.10;4.18;;;;;;;;;;5033794;28;20755;-55
2021/10/24 09:18:23;;;;;;;20.73;3.88;;;;;;;;;;5037564;28;20031;-54
2021/10/24 09:20:49;;;;;;;5.32;2.78;;;;;;;;;;5036041;28;20033;-49
2021/10/24 09:23:15;;;;;;;12.40;4.85;;;;;;;;;;5032801;28;20040;-52
2021/10/24 09:26:06;;;;;;;143.43;117.97;;;;;;;;;;5034444;28;20053;-48
2021/10/24 09:28:31;;;;;;;100.47;79.93;;;;;;;;;;5033197;28;20033;-55
2021/10/24 09:30:58;;;;;;;75.38;63.15;;;;;;;;;;5032970;28;20687;-51
2021/10/24 09:33:24;;;;;;;60.78;48.13;;;;;;;;;;5033948;28;20028;-54
2021/10/24 09:35:50;;;;;;;27.75;23.08;;;;;;;;;;5031531;28;20021;-51
2021/10/24 09:38:15;;;;;;;19.50;6.88;;;;;;;;;;5032479;28;20029;-50
2021/10/24 09:40:42;;;;;;;7.57;5.38;;;;;;;;;;5033157;28;20022;-52
2021/10/24 09:43:09;;;;;;;8.65;4.53;;;;;;;;;;5038572;28;20029;-55
2021/10/24 09:45:34;;;;;;;5.80;3.10;;;;;;;;;;5032737;28;20053;-60
2021/10/24 09:48:07;;;;;;;7.28;4.38;;;;;;;;;;5036927;28;20031;-52
2021/10/24 09:50:33;;;;;;;9.52;5.30;;;;;;;;;;5033511;28;20183;-52
2021/10/24 09:53:12;;;;;;;16.30;6.55;;;;;;;;;;5037440;28;20017;-51
2021/10/24 09:55:39;;;;;;;11.10;4.85;;;;;;;;;;5032094;28;20044;-56
2021/10/24 09:58:04;;;;;;;8.35;4.22;;;;;;;;;;5033331;28;20067;-53
2021/10/24 10:00:31;;;;;;;8.07;4.18;;;;;;;;;;5034904;28;20888;-51
2021/10/24 10:02:57;;;;;;;13.75;5.30;;;;;;;;;;5034976;28;20029;-52
2021/10/24 10:05:23;;;;;;;6.38;3.90;;;;;;;;;;5034129;28;20017;-49
2021/10/24 10:07:48;;;;;;;7.45;4.00;;;;;;;;;;5034428;28;20040;-49
2021/10/24 10:10:14;;;;;;;10.18;4.15;;;;;;;;;;5033706;28;20020;-54
2021/10/24 10:12:44;;;;;;;6.35;4.32;;;;;;;;;;5034137;28;20029;-54
2021/10/24 10:15:10;;;;;;;8.25;4.13;;;;;;;;;;5034161;28;20804;-54
2021/10/24 10:17:37;;;;;;;7.25;3.78;;;;;;;;;;5034871;28;20033;-54
2021/10/24 10:20:21;;;;;;;10.40;4.88;;;;;;;;;;5030993;28;20040;-55
2021/10/24 10:22:58;;;;;;;10.27;5.05;;;;;;;;;;5033890;28;20037;-51
2021/10/24 10:25:28;;;;;;;5.68;3.47;;;;;;;;;;5031852;28;20033;-54
2021/10/24 10:27:55;;;;;;;5.30;3.08;;;;;;;;;;5033439;28;20436;-48
2021/10/24 10:30:31;;;;;;;7.90;3.65;;;;;;;;;;5032632;28;20025;-51
2021/10/24 10:32:57;;;;;;;6.78;4.60;;;;;;;;;;5033872;28;20026;-49
2021/10/24 10:35:23;;;;;;;8.75;5.60;;;;;;;;;;5035624;28;20017;-51
2021/10/24 10:37:53;;;;;;;5.72;3.33;;;;;;;;;;5034600;28;20056;-46
2021/10/24 10:40:24;;;;;;;7.32;5.13;;;;;;;;;;5035729;28;20016;-51
2021/10/24 10:42:55;;;;;;;9.73;6.65;;;;;;;;;;5036060;28;20025;-52
2021/10/24 10:45:20;;;;;;;22.98;7.85;;;;;;;;;;5033050;28;20045;-53
2021/10/24 10:48:06;;;;;;;9.05;5.07;;;;;;;;;;5035573;28;20565;-53
2021/10/24 10:50:41;;;;;;;8.27;5.93;;;;;;;;;;5028953;28;20036;-53
2021/10/24 10:53:07;;;;;;;11.05;4.43;;;;;;;;;;5030688;28;20021;-49
2021/10/24 10:55:51;;;;;;;8.23;5.70;;;;;;;;;;5032386;28;20107;-54
2021/10/24 10:58:36;;;;;;;13.30;4.03;;;;;;;;;;5038390;28;20533;-55
2021/10/24 11:01:02;;;;;;;12.27;6.45;;;;;;;;;;5032452;28;20033;-53
2021/10/24 11:03:57;;;;;;;7.65;4.85;;;;;;;;;;5029614;28;20599;-54
2021/10/24 11:06:22;;;;;;;5.43;4.05;;;;;;;;;;5029340;28;20036;-53
2021/10/24 11:08:51;;;;;;;12.35;3.97;;;;;;;;;;5029387;28;20029;-52
2021/10/24 11:11:36;;;;;;;9.18;5.03;;;;;;;;;;5029663;28;20079;-53
2021/10/24 11:14:04;;;;;;;7.78;4.65;;;;;;;;;;5032979;28;20075;-58
2021/10/24 11:16:35;;;;;;;6.28;3.97;;;;;;;;;;5028904;28;20021;-52
2021/10/24 11:19:05;;;;;;;8.18;5.93;;;;;;;;;;5029539;28;20090;-54
2021/10/24 11:21:30;;;;;;;6.65;5.07;;;;;;;;;;5032944;28;20055;-55
2021/10/24 11:23:56;;;;;;;21.70;6.82;;;;;;;;;;5033933;28;20645;-56
2021/10/24 11:26:22;;;;;;;5.75;4.30;;;;;;;;;;5032427;28;20500;-57
2021/10/24 11:28:47;;;;;;;11.45;6.38;;;;;;;;;;5032842;28;20038;-57
2021/10/24 11:31:17;;;;;;;11.38;5.53;;;;;;;;;;5032300;28;20060;-57
2021/10/24 11:33:43;;;;;;;9.45;6.05;;;;;;;;;;5033283;28;20840;-52
2021/10/24 11:36:08;;;;;;;9.60;6.47;;;;;;;;;;5032788;28;20400;-55
2021/10/24 11:38:34;;;;;;;13.55;6.10;;;;;;;;;;5031917;28;20017;-52
2021/10/24 11:41:00;;;;;;;9.82;6.13;;;;;;;;;;5031237;28;20028;-54
2021/10/24 11:43:25;;;;;;;7.40;6.57;;;;;;;;;;5030808;28;20033;-53
2021/10/24 11:45:54;;;;;;;8.57;5.53;;;;;;;;;;5032308;28;20049;-52
2021/10/24 11:48:28;;;;;;;7.57;6.18;;;;;;;;;;5033583;28;20668;-53
2021/10/24 11:50:58;;;;;;;8.77;5.10;;;;;;;;;;5034155;28;20033;-53
2021/10/24 11:53:33;;;;;;;15.27;5.80;;;;;;;;;;5036754;28;20076;-54
2021/10/24 11:56:01;;;;;;;19.77;5.57;;;;;;;;;;5030214;28;20029;-52
2021/10/24 12:01:10;;;;;;;3.95;3.45;;;;;;;;;;5034092;28;20032;-55
2021/10/24 12:03:36;;;;;;;7.90;3.55;;;;;;;;;;5034022;28;20029;-55
2021/10/24 12:06:02;;;;;;;5.30;3.50;;;;;;;;;;5034937;28;20025;-54
2021/10/24 12:08:46;;;;;;;8.48;3.72;;;;;;;;;;5033854;28;20021;-55
2021/10/24 12:11:13;;;;;;;7.82;3.60;;;;;;;;;;5036775;28;20032;-55
2021/10/24 12:13:39;;;;;;;4.80;3.67;;;;;;;;;;5033937;28;20712;-55
2021/10/24 12:16:21;;;;;;;7.50;5.32;;;;;;;;;;5035635;28;20144;-52
2021/10/24 12:18:47;;;;;;;11.35;4.40;;;;;;;;;;5038787;28;20031;-51
2021/10/24 12:21:12;;;;;;;9.07;4.40;;;;;;;;;;5050024;28;20439;-50
2021/10/24 12:23:38;;;;;;;11.50;6.10;;;;;;;;;;5042394;28;20025;-53
2021/10/24 12:26:06;;;;;;;8.32;3.88;;;;;;;;;;5041715;28;20100;-53
2021/10/24 12:28:40;;;;;;;9.85;4.60;;;;;;;;;;5039754;28;20031;-51
2021/10/24 12:31:21;;;;;;;5.57;3.15;;;;;;;;;;5037399;28;20476;-54
2021/10/24 12:33:47;;;;;;;;;;;;;;;;;;5037130;28;20045;-54
2021/10/24 12:36:14;;;;;;;8.27;5.50;;;;;;;;;;5036732;28;20371;-52
2021/10/24 12:38:44;;;;;;;10.90;3.03;;;;;;;;;;5037048;28;20028;-54
2021/10/24 12:41:09;;;;;;;8.95;4.05;;;;;;;;;;5036439;28;20036;-53
2021/10/24 12:43:44;;;;;;;16.30;7.40;;;;;;;;;;5038258;28;20112;-55
2021/10/24 12:46:10;;;;;;;5.50;3.80;;;;;;;;;;5038912;28;20056;-54
2021/10/24 12:48:41;;;;;;;4.35;3.95;;;;;;;;;;5038888;28;20043;-51
2021/10/24 12:51:19;;;;;;;8.10;4.43;;;;;;;;;;5035920;28;20531;-53
2021/10/24 12:53:44;;;;;;;7.72;3.47;;;;;;;;;;5035530;28;20039;-50
2021/10/24 12:56:10;;;;;;;16.27;4.53;;;;;;;;;;5039057;28;20029;-53
2021/10/24 12:58:35;;;;;;;5.40;3.15;;;;;;;;;;5032906;28;20124;-53
2021/10/24 13:01:00;;;;;;;7.88;3.78;;;;;;;;;;5032798;28;20025;-53
2021/10/24 13:03:26;;;;;;;9.40;3.38;;;;;;;;;;5032485;28;20013;-53
2021/10/24 13:05:51;;;;;;;9.82;3.75;;;;;;;;;;5035248;28;20023;-54
2021/10/24 13:08:17;;;;;;;5.05;4.25;;;;;;;;;;5037961;28;20033;-50
2021/10/24 13:10:43;;;;;;;2.92;1.88;;;;;;;;;;5041491;28;20074;-51
2021/10/24 13:13:08;;;;;;;3.50;2.83;;;;;;;;;;5036987;28;20021;-54
2021/10/24 13:15:33;;;;;;;7.97;3.90;;;;;;;;;;5038788;28;20021;-55
2021/10/24 13:17:59;;;;;;;5.32;2.58;;;;;;;;;;5033840;28;20024;-54
2021/10/24 13:20:24;;;;;;;5.63;2.97;;;;;;;;;;5038058;28;20472;-54
2021/10/24 13:22:57;;;;;;;2.65;1.90;;;;;;;;;;5034982;28;20029;-48
2021/10/24 13:25:26;;;;;;;8.95;3.30;;;;;;;;;;5032973;28;20397;-54
2021/10/24 13:27:54;;;;;;;3.58;2.58;;;;;;;;;;5030472;28;20032;-52
2021/10/24 13:30:21;;;;;;;8.70;3.05;;;;;;;;;;5029993;28;20036;-55
2021/10/24 13:32:49;;;;;;;4.68;3.17;;;;;;;;;;5035533;28;20029;-51
2021/10/24 13:35:15;;;;;;;14.13;3.60;;;;;;;;;;5031292;28;20597;-53
2021/10/24 13:37:40;;;;;;;6.55;2.67;;;;;;;;;;5031194;28;20037;-53
2021/10/24 13:40:06;;;;;;;4.03;1.77;;;;;;;;;;5032449;28;20033;-55
2021/10/24 13:42:31;;;;;;;12.43;4.57;;;;;;;;;;5033106;28;20469;-53
2021/10/24 13:44:57;;;;;;;9.30;5.65;;;;;;;;;;5036224;28;20720;-53
2021/10/24 13:47:22;;;;;;;6.78;5.07;;;;;;;;;;5033974;28;20025;-51
2021/10/24 13:49:47;;;;;;;9.77;5.30;;;;;;;;;;5036239;28;20669;-53
2021/10/24 13:52:13;;;;;;;17.08;15.30;;;;;;;;;;5036368;28;20029;-53
2021/10/24 13:54:38;;;;;;;23.15;20.55;;;;;;;;;;5036431;28;20076;-51
2021/10/24 13:57:03;;;;;;;34.38;30.65;;;;;;;;;;5038084;28;20518;-53
2021/10/24 13:59:29;;;;;;;8.05;7.05;;;;;;;;;;5034297;28;20041;-53
2021/10/24 14:01:54;;;;;;;11.77;7.88;;;;;;;;;;5032031;28;20033;-51
2021/10/24 14:04:19;;;;;;;7.88;5.70;;;;;;;;;;5034543;28;20091;-52
2021/10/24 14:06:45;;;;;;;13.05;7.85;;;;;;;;;;5032005;28;20033;-53
2021/10/24 14:09:10;;;;;;;8.43;5.30;;;;;;;;;;5034523;28;20109;-55
2021/10/24 14:11:35;;;;;;;10.05;6.22;;;;;;;;;;5035682;28;20667;-55
2021/10/24 14:14:01;;;;;;;8.75;6.32;;;;;;;;;;5032765;28;20037;-52
2021/10/24 14:16:26;;;;;;;11.02;5.53;;;;;;;;;;5031136;28;20250;-56
2021/10/24 14:18:51;;;;;;;9.10;5.03;;;;;;;;;;5035591;28;20147;-54
2021/10/24 14:21:19;;;;;;;8.45;4.35;;;;;;;;;;5034337;28;20037;-48
2021/10/24 14:23:44;;;;;;;8.32;5.55;;;;;;;;;;5030600;28;20020;-49
2021/10/24 14:26:10;;;;;;;5.22;4.32;;;;;;;;;;5029570;28;20079;-53
2021/10/24 14:28:35;;;;;;;8.07;5.00;;;;;;;;;;5030846;28;20056;-53
2021/10/24 14:31:01;;;;;;;7.85;3.65;;;;;;;;;;5033027;28;20033;-53
2021/10/24 14:33:26;;;;;;;5.35;3.78;;;;;;;;;;5032978;28;20544;-53
2021/10/24 14:35:52;;;;;;;11.50;4.78;;;;;;;;;;5031681;28;20033;-52
2021/10/24 14:38:17;;;;;;;10.85;3.80;;;;;;;;;;5034268;28;20025;-55
2021/10/24 14:40:43;;;;;;;8.05;3.25;;;;;;;;;;5033899;28;20545;-54
2021/10/24 14:43:10;;;;;;;4.70;3.05;;;;;;;;;;5036224;28;20566;-52